createdAt,value
2023-04-20T00:01:17.820Z,86.50
2023-04-20T00:03:45.295Z,86.40
2023-04-20T00:06:14.068Z,86.40
2023-04-20T00:08:41.261Z,86.50
2023-04-20T00:11:08.443Z,86.80
2023-04-20T00:13:35.662Z,86.30
2023-04-20T00:16:03.192Z,86.60
2023-04-20T00:18:30.420Z,86.60
2023-04-20T00:20:57.594Z,86.70
2023-04-20T00:23:24.799Z,86.60
2023-04-20T00:25:52.239Z,86.90
2023-04-20T00:28:19.498Z,86.60
2023-04-20T00:30:46.670Z,87.00
2023-04-20T00:33:13.882Z,86.90
2023-04-20T00:35:41.092Z,87.10
2023-04-20T00:38:08.277Z,87.00
2023-04-20T00:40:35.695Z,87.00
2023-04-20T00:43:14.257Z,86.90
2023-04-20T00:45:41.714Z,87.00
2023-04-20T00:48:08.892Z,87.20
2023-04-20T00:50:37.702Z,87.60
2023-04-20T00:53:07.044Z,87.60
2023-04-20T00:55:37.813Z,87.40
2023-04-20T00:58:06.597Z,87.30
2023-04-20T01:00:34.821Z,87.50
2023-04-20T01:03:02.285Z,87.70
2023-04-20T01:05:29.843Z,87.50
2023-04-20T01:07:57.141Z,88.10
2023-04-20T01:10:24.486Z,87.90
2023-04-20T01:12:51.745Z,88.30
2023-04-20T01:15:18.993Z,88.60
2023-04-20T01:17:46.310Z,88.60
2023-04-20T01:20:14.671Z,88.80
2023-04-20T01:22:51.335Z,88.60
2023-04-20T01:25:19.196Z,89.40
2023-04-20T01:27:46.735Z,89.10
2023-04-20T01:30:14.585Z,90.00
2023-04-20T01:32:41.987Z,90.00
2023-04-20T01:35:10.573Z,90.00
2023-04-20T01:37:39.344Z,90.00
2023-04-20T01:40:10.578Z,89.80
2023-04-20T01:42:37.914Z,89.80
2023-04-20T01:45:06.889Z,89.50
2023-04-20T01:47:34.930Z,89.30
2023-04-20T01:50:02.181Z,89.30
2023-04-20T01:52:29.410Z,89.30
2023-04-20T01:54:56.613Z,89.20
2023-04-20T01:57:23.879Z,89.30
2023-04-20T01:59:51.115Z,89.50
2023-04-20T02:02:18.699Z,89.20
2023-04-20T02:04:45.989Z,89.20
2023-04-20T02:07:13.176Z,89.80
2023-04-20T02:09:40.496Z,89.00
2023-04-20T02:12:07.800Z,89.00
2023-04-20T02:14:34.995Z,89.80
2023-04-20T02:17:02.426Z,89.40
2023-04-20T02:19:29.742Z,89.30
2023-04-20T02:21:56.956Z,89.10
2023-04-20T02:24:24.097Z,89.10
2023-04-20T02:26:51.448Z,88.80
2023-04-20T02:29:18.741Z,89.20
2023-04-20T02:31:46.174Z,89.40
2023-04-20T02:34:13.388Z,89.30
2023-04-20T02:36:40.861Z,89.00
2023-04-20T02:39:08.057Z,88.90
2023-04-20T02:41:35.210Z,88.90
2023-04-20T02:44:02.485Z,89.20
2023-04-20T02:46:29.749Z,89.10
2023-04-20T02:48:57.078Z,89.00
2023-04-20T02:51:24.496Z,89.10
2023-04-20T02:53:51.683Z,89.50
2023-04-20T02:56:19.024Z,89.60
2023-04-20T02:58:48.296Z,89.70
2023-04-20T03:01:15.980Z,89.80
2023-04-20T03:03:43.371Z,89.90
2023-04-20T03:06:10.879Z,90.00
2023-04-20T03:08:38.057Z,90.00
2023-04-20T03:11:05.323Z,90.10
2023-04-20T03:13:32.538Z,90.10
2023-04-20T03:15:59.784Z,90.10
2023-04-20T03:18:27.076Z,90.10
2023-04-20T03:20:54.620Z,90.20
2023-04-20T03:23:21.950Z,90.20
2023-04-20T03:25:49.341Z,90.30
2023-04-20T03:28:16.735Z,90.30
2023-04-20T03:30:44.075Z,90.50
2023-04-20T03:33:11.893Z,90.70
2023-04-20T03:35:39.545Z,90.80
2023-04-20T03:38:06.841Z,90.70
2023-04-20T03:40:34.996Z,90.80
2023-04-20T03:43:02.206Z,90.90
2023-04-20T03:45:29.518Z,91.00
2023-04-20T03:47:56.724Z,91.10
2023-04-20T03:50:23.976Z,91.20
2023-04-20T03:52:51.630Z,91.20
2023-04-20T03:55:18.870Z,91.40
2023-04-20T03:57:46.028Z,91.40
2023-04-20T04:00:14.219Z,91.50
2023-04-20T04:02:41.491Z,91.60
2023-04-20T04:05:09.019Z,91.70
2023-04-20T04:07:36.385Z,91.80
2023-04-20T04:10:05.863Z,92.00
2023-04-20T04:12:33.201Z,92.40
2023-04-20T04:15:00.435Z,92.50
2023-04-20T04:17:27.681Z,92.50
2023-04-20T04:19:54.893Z,92.50
2023-04-20T04:22:22.117Z,92.50
2023-04-20T04:24:49.472Z,92.60
2023-04-20T04:27:16.771Z,92.60
2023-04-20T04:29:44.821Z,92.60
2023-04-20T04:32:12.505Z,92.60
2023-04-20T04:34:39.719Z,92.60
2023-04-20T04:37:06.924Z,92.60
2023-04-20T04:39:34.142Z,92.70
2023-04-20T04:42:04.340Z,93.00
2023-04-20T04:44:33.323Z,92.70
2023-04-20T04:47:02.921Z,92.70
2023-04-20T04:49:30.883Z,92.60
2023-04-20T04:51:59.187Z,92.50
2023-04-20T04:54:26.401Z,92.40
2023-04-20T04:56:53.631Z,92.20
2023-04-20T04:59:20.959Z,92.30
2023-04-20T05:01:48.160Z,92.00
2023-04-20T05:04:15.677Z,92.00
2023-04-20T05:06:42.985Z,91.80
2023-04-20T05:09:10.166Z,91.70
2023-04-20T05:11:37.391Z,91.70
2023-04-20T05:14:04.584Z,91.60
2023-04-20T05:16:31.813Z,91.30
2023-04-20T05:18:59.078Z,91.10
2023-04-20T05:21:26.347Z,91.20
2023-04-20T05:23:53.611Z,90.90
2023-04-20T05:26:21.214Z,90.80
2023-04-20T05:28:48.403Z,90.60
2023-04-20T05:31:15.878Z,90.30
2023-04-20T05:33:43.465Z,90.10
2023-04-20T05:36:10.940Z,90.10
2023-04-20T05:38:39.204Z,89.90
2023-04-20T05:41:06.652Z,89.60
2023-04-20T05:43:33.893Z,89.40
2023-04-20T05:46:01.147Z,89.20
2023-04-20T05:48:30.023Z,89.10
2023-04-20T05:50:58.339Z,88.10
2023-04-20T05:53:26.249Z,87.90
2023-04-20T05:55:53.680Z,87.70
2023-04-20T05:58:20.971Z,87.20
2023-04-20T06:00:48.343Z,86.90
2023-04-20T06:03:16.749Z,86.60
2023-04-20T06:05:44.336Z,85.90
2023-04-20T06:08:12.168Z,85.20
2023-04-20T06:10:39.409Z,84.00
2023-04-20T06:13:06.583Z,83.60
2023-04-20T06:15:33.844Z,83.30
2023-04-20T06:18:01.795Z,82.20
2023-04-20T06:20:29.277Z,81.80
2023-04-20T06:22:57.087Z,81.30
2023-04-20T06:25:24.406Z,81.20
2023-04-20T06:27:52.821Z,80.30
2023-04-20T06:30:20.486Z,78.90
2023-04-20T06:32:47.772Z,79.50
2023-04-20T06:35:15.141Z,78.40
2023-04-20T06:37:42.374Z,78.20
2023-04-20T06:40:09.814Z,77.50
2023-04-20T06:42:40.095Z,77.20
2023-04-20T06:45:08.451Z,76.90
2023-04-20T06:47:36.912Z,76.30
2023-04-20T06:50:09.826Z,75.00
2023-04-20T06:52:41.735Z,74.60
2023-04-20T06:55:10.170Z,74.90
2023-04-20T06:57:40.159Z,74.90
2023-04-20T07:00:10.472Z,74.10
2023-04-20T07:02:49.509Z,74.00
2023-04-20T07:05:18.268Z,73.30
2023-04-20T07:07:46.171Z,73.10
2023-04-20T07:10:15.777Z,72.80
2023-04-20T07:12:44.115Z,72.50
2023-04-20T07:15:12.096Z,73.10
2023-04-20T07:17:39.431Z,72.50
2023-04-20T07:20:08.678Z,72.40
2023-04-20T07:22:37.379Z,71.60
2023-04-20T07:25:08.144Z,71.30
2023-04-20T07:27:37.849Z,71.50
2023-04-20T07:30:06.958Z,71.30
2023-04-20T07:32:35.223Z,70.60
2023-04-20T07:35:03.482Z,70.70
2023-04-20T07:37:32.015Z,70.40
2023-04-20T07:39:59.223Z,70.80
2023-04-20T07:42:26.732Z,70.90
2023-04-20T07:44:54.429Z,70.80
2023-04-20T07:47:21.791Z,70.40
2023-04-20T07:49:49.170Z,71.00
2023-04-20T07:52:17.441Z,69.80
2023-04-20T07:54:45.722Z,69.70
2023-04-20T07:57:13.321Z,69.70
2023-04-20T07:59:40.873Z,69.70
2023-04-20T08:02:09.148Z,69.60
2023-04-20T08:04:41.181Z,69.30
2023-04-20T08:07:08.741Z,69.70
2023-04-20T08:09:36.004Z,69.80
2023-04-20T08:12:03.419Z,69.80
2023-04-20T08:14:30.827Z,69.50
2023-04-20T08:16:58.042Z,69.10
2023-04-20T08:19:25.294Z,68.90
2023-04-20T08:21:52.958Z,68.30
2023-04-20T08:24:20.891Z,68.30
2023-04-20T08:26:48.409Z,68.40
2023-04-20T08:29:15.844Z,68.10
2023-04-20T08:31:43.348Z,67.60
2023-04-20T08:34:12.200Z,67.00
2023-04-20T08:36:39.481Z,66.50
2023-04-20T08:39:09.606Z,66.30
2023-04-20T08:41:37.178Z,66.00
2023-04-20T08:44:04.879Z,66.10
2023-04-20T08:46:34.668Z,66.00
2023-04-20T08:49:05.001Z,66.00
2023-04-20T08:51:32.671Z,65.70
2023-04-20T08:54:06.098Z,65.30
2023-04-20T08:56:38.694Z,65.40
2023-04-20T08:59:10.046Z,65.00
2023-04-20T09:01:41.956Z,64.50
2023-04-20T09:04:21.274Z,63.60
2023-04-20T09:06:51.385Z,63.30
2023-04-20T09:09:25.324Z,63.20
2023-04-20T09:12:09.951Z,62.70
2023-04-20T09:14:48.111Z,62.10
2023-04-20T09:17:17.889Z,61.60
2023-04-20T09:19:54.462Z,61.80
2023-04-20T09:22:37.148Z,61.30
2023-04-20T09:25:18.219Z,60.30
2023-04-20T09:28:00.017Z,59.80
2023-04-20T09:30:45.390Z,59.40
2023-04-20T09:33:14.634Z,59.10
2023-04-20T09:35:45.737Z,59.00
2023-04-20T09:38:17.160Z,59.00
2023-04-20T09:40:44.671Z,58.90
2023-04-20T09:43:19.923Z,58.60
2023-04-20T09:45:47.576Z,58.60
2023-04-20T09:48:19.016Z,58.70
2023-04-20T09:50:50.123Z,58.70
2023-04-20T09:53:19.677Z,58.70
2023-04-20T09:55:49.724Z,58.20
2023-04-20T09:58:21.639Z,58.20
2023-04-20T10:00:50.084Z,57.80
2023-04-20T10:03:19.561Z,58.10
2023-04-20T10:05:47.507Z,58.20
2023-04-20T10:08:14.877Z,58.10
2023-04-20T10:10:46.677Z,58.20
2023-04-20T10:13:16.129Z,58.40
2023-04-20T10:15:43.560Z,58.40
2023-04-20T10:18:20.364Z,58.60
2023-04-20T10:20:47.774Z,58.70
2023-04-20T10:23:16.432Z,58.60
2023-04-20T10:25:45.517Z,58.20
2023-04-20T10:28:12.865Z,58.00
2023-04-20T10:30:51.661Z,57.50
2023-04-20T10:33:19.667Z,56.20
2023-04-20T10:35:56.318Z,56.90
2023-04-20T10:38:35.557Z,56.50
2023-04-20T10:41:14.678Z,56.10
2023-04-20T10:43:44.682Z,56.10
2023-04-20T10:46:24.372Z,55.90
2023-04-20T10:49:03.811Z,55.60
2023-04-20T10:51:31.618Z,55.30
2023-04-20T10:54:08.648Z,55.60
2023-04-20T10:56:48.318Z,55.30
2023-04-20T10:59:18.224Z,55.20
2023-04-20T11:01:47.014Z,54.30
2023-04-20T11:04:18.313Z,54.80
2023-04-20T11:06:50.460Z,54.00
2023-04-20T11:09:28.430Z,53.90
2023-04-20T11:12:16.134Z,53.90
2023-04-20T11:15:10.152Z,53.60
2023-04-20T11:17:39.581Z,53.30
2023-04-20T11:20:16.390Z,53.30
2023-04-20T11:22:44.617Z,53.00
2023-04-20T11:25:13.064Z,52.50
2023-04-20T11:27:42.274Z,52.50
2023-04-20T11:30:10.488Z,52.30
2023-04-20T11:32:38.380Z,52.10
2023-04-20T11:35:11.137Z,51.90
2023-04-20T11:37:51.495Z,51.20
2023-04-20T11:40:19.202Z,50.90
2023-04-20T11:42:46.577Z,50.60
2023-04-20T11:45:13.725Z,50.40
2023-04-20T11:47:41.083Z,50.70
2023-04-20T11:50:10.341Z,50.80
2023-04-20T11:52:37.796Z,50.90
2023-04-20T11:55:05.986Z,51.00
2023-04-20T11:57:33.521Z,50.80
2023-04-20T12:00:01.144Z,51.10
2023-04-20T12:02:28.458Z,51.20
2023-04-20T12:04:55.933Z,51.00
2023-04-20T12:07:23.379Z,51.40
2023-04-20T12:09:50.691Z,51.90
2023-04-20T12:12:18.072Z,52.10
2023-04-20T12:14:45.315Z,52.10
2023-04-20T12:17:12.485Z,51.90
2023-04-20T12:19:39.686Z,52.00
2023-04-20T12:22:06.968Z,52.00
2023-04-20T12:24:34.199Z,51.90
2023-04-20T12:27:01.596Z,52.00
2023-04-20T12:29:31.188Z,51.60
2023-04-20T12:31:58.857Z,51.50
2023-04-20T12:34:26.719Z,51.20
2023-04-20T12:36:53.936Z,51.00
2023-04-20T12:39:21.909Z,51.00
2023-04-20T12:41:49.093Z,51.20
2023-04-20T12:44:17.634Z,50.90
2023-04-20T12:46:45.578Z,51.00
2023-04-20T12:49:12.917Z,51.10
2023-04-20T12:51:40.893Z,51.00
2023-04-20T12:54:08.586Z,51.00
2023-04-20T12:56:38.356Z,50.90
2023-04-20T12:59:05.683Z,50.70
2023-04-20T13:01:33.032Z,50.60
2023-04-20T13:04:00.561Z,50.90
2023-04-20T13:06:28.132Z,51.10
2023-04-20T13:08:55.337Z,51.20
2023-04-20T13:11:22.521Z,51.30
2023-04-20T13:13:49.705Z,51.70
2023-04-20T13:16:17.000Z,51.90
2023-04-20T13:18:44.674Z,51.90
2023-04-20T13:21:11.897Z,51.80
2023-04-20T13:23:40.060Z,51.80
2023-04-20T13:26:08.492Z,51.00
2023-04-20T13:28:35.679Z,51.20
2023-04-20T13:31:02.794Z,50.90
2023-04-20T13:33:30.330Z,51.10
2023-04-20T13:35:57.405Z,50.40
2023-04-20T13:38:24.510Z,50.80
2023-04-20T13:40:51.729Z,50.80
2023-04-20T13:43:21.358Z,50.90
2023-04-20T13:45:48.998Z,50.90
2023-04-20T13:48:16.281Z,50.40
2023-04-20T13:50:43.451Z,49.60
2023-04-20T13:53:10.526Z,49.70
2023-04-20T13:55:37.641Z,49.50
2023-04-20T13:58:04.814Z,50.00
2023-04-20T14:00:34.178Z,50.10
2023-04-20T14:03:02.353Z,49.50
2023-04-20T14:05:29.839Z,49.70
2023-04-20T14:08:01.436Z,49.80
2023-04-20T14:10:29.268Z,49.90
2023-04-20T14:12:57.392Z,50.20
2023-04-20T14:15:24.872Z,50.00
2023-04-20T14:17:53.011Z,49.70
2023-04-20T14:20:27.594Z,49.80
2023-04-20T14:22:54.808Z,49.90
2023-04-20T14:25:22.115Z,49.90
2023-04-20T14:27:49.373Z,49.90
2023-04-20T14:30:16.694Z,49.90
2023-04-20T14:32:57.452Z,49.70
2023-04-20T14:35:27.472Z,49.90
2023-04-20T14:37:54.900Z,50.10
2023-04-20T14:40:22.385Z,50.90
2023-04-20T14:42:49.640Z,50.20
2023-04-20T14:45:16.938Z,50.10
2023-04-20T14:47:44.195Z,50.10
2023-04-20T14:50:11.897Z,50.20
2023-04-20T14:52:39.083Z,50.30
2023-04-20T14:55:06.789Z,50.60
2023-04-20T14:57:34.328Z,50.80
2023-04-20T15:00:01.599Z,51.20
2023-04-20T15:02:29.008Z,50.90
2023-04-20T15:04:58.797Z,50.90
2023-04-20T15:07:26.320Z,50.80
2023-04-20T15:09:53.545Z,50.80
2023-04-20T15:12:21.000Z,50.90
2023-04-20T15:14:49.189Z,51.10
2023-04-20T15:17:16.493Z,51.30
2023-04-20T15:19:46.124Z,51.30
2023-04-20T15:22:13.745Z,51.10
2023-04-20T15:24:41.001Z,51.20
2023-04-20T15:27:08.909Z,51.20
2023-04-20T15:29:37.303Z,51.40
2023-04-20T15:32:05.004Z,51.20
2023-04-20T15:34:32.176Z,51.50
2023-04-20T15:36:59.416Z,51.60
2023-04-20T15:39:26.606Z,51.40
2023-04-20T15:41:53.794Z,51.60
2023-04-20T15:44:21.106Z,51.60
2023-04-20T15:46:48.738Z,51.60
2023-04-20T15:49:19.956Z,51.70
2023-04-20T15:51:47.783Z,52.20
2023-04-20T15:54:15.681Z,51.40
2023-04-20T15:56:43.003Z,51.30
2023-04-20T15:59:10.185Z,51.30
2023-04-20T16:01:37.409Z,51.40
2023-04-20T16:04:05.103Z,51.90
2023-04-20T16:06:32.584Z,51.80
2023-04-20T16:08:59.788Z,51.30
2023-04-20T16:11:27.175Z,50.90
2023-04-20T16:13:57.767Z,50.50
2023-04-20T16:16:25.631Z,50.30
2023-04-20T16:18:55.034Z,50.20
2023-04-20T16:21:23.431Z,50.40
2023-04-20T16:23:56.708Z,50.50
2023-04-20T16:26:27.193Z,50.70
2023-04-20T16:28:54.483Z,50.90
2023-04-20T16:31:21.825Z,51.20
2023-04-20T16:33:49.183Z,51.40
2023-04-20T16:36:16.665Z,51.50
2023-04-20T16:38:43.967Z,51.70
2023-04-20T16:41:11.228Z,51.90
2023-04-20T16:43:38.513Z,52.00
2023-04-20T16:46:05.885Z,52.10
2023-04-20T16:48:33.169Z,52.30
2023-04-20T16:51:00.453Z,52.40
2023-04-20T16:53:27.689Z,53.10
2023-04-20T16:55:54.932Z,52.70
2023-04-20T16:58:22.665Z,53.40
2023-04-20T17:00:50.496Z,53.60
2023-04-20T17:03:17.904Z,53.70
2023-04-20T17:05:51.185Z,54.00
2023-04-20T17:08:19.003Z,54.20
2023-04-20T17:10:46.273Z,54.40
2023-04-20T17:13:13.715Z,54.60
2023-04-20T17:15:42.766Z,55.60
2023-04-20T17:18:10.011Z,55.60
2023-04-20T17:20:37.295Z,56.20
2023-04-20T17:23:04.598Z,56.50
2023-04-20T17:25:31.996Z,57.10
2023-04-20T17:27:59.255Z,57.50
2023-04-20T17:30:26.553Z,58.30
2023-04-20T17:32:54.197Z,58.70
2023-04-20T17:35:22.709Z,59.00
2023-04-20T17:37:49.761Z,59.50
2023-04-20T17:40:16.961Z,59.40
2023-04-20T17:42:44.285Z,59.70
2023-04-20T17:45:12.002Z,60.10
2023-04-20T17:47:39.284Z,60.90
2023-04-20T17:50:07.723Z,61.30
2023-04-20T17:52:35.901Z,61.90
2023-04-20T17:55:03.396Z,62.40
2023-04-20T17:57:30.708Z,62.70
2023-04-20T17:59:57.992Z,62.90
2023-04-20T18:02:25.466Z,63.30
2023-04-20T18:04:55.335Z,63.60
2023-04-20T18:07:22.735Z,63.80
2023-04-20T18:09:49.967Z,64.20
2023-04-20T18:12:17.241Z,64.50
2023-04-20T18:14:45.275Z,64.70
2023-04-20T18:17:12.623Z,64.90
2023-04-20T18:19:41.084Z,65.10
2023-04-20T18:22:09.107Z,65.30
2023-04-20T18:24:36.314Z,65.40
2023-04-20T18:27:04.151Z,65.30
2023-04-20T18:29:31.549Z,66.00
2023-04-20T18:32:02.002Z,65.80
2023-04-20T18:34:32.070Z,66.40
2023-04-20T18:36:59.755Z,66.60
2023-04-20T18:39:27.209Z,66.90
2023-04-20T18:41:54.480Z,67.10
2023-04-20T18:44:21.904Z,67.30
2023-04-20T18:46:49.475Z,67.70
2023-04-20T18:49:16.796Z,67.80
2023-04-20T18:51:44.056Z,68.00
2023-04-20T18:54:11.421Z,68.40
2023-04-20T18:56:39.601Z,68.60
2023-04-20T18:59:08.536Z,68.90
2023-04-20T19:01:40.388Z,69.10
2023-04-20T19:04:09.001Z,69.30
2023-04-20T19:06:36.462Z,69.60
2023-04-20T19:09:05.870Z,69.70
2023-04-20T19:11:35.911Z,69.50
2023-04-20T19:14:08.458Z,69.90
2023-04-20T19:16:37.037Z,70.30
2023-04-20T19:19:06.725Z,70.60
2023-04-20T19:21:34.268Z,70.90
2023-04-20T19:24:01.679Z,70.60
2023-04-20T19:26:29.398Z,70.90
2023-04-20T19:28:58.296Z,71.10
2023-04-20T19:31:26.563Z,71.20
2023-04-20T19:33:55.338Z,71.30
2023-04-20T19:36:24.365Z,71.50
2023-04-20T19:38:51.679Z,71.50
2023-04-20T19:41:19.050Z,71.60
2023-04-20T19:43:46.286Z,71.60
2023-04-20T19:46:16.870Z,71.60
2023-04-20T19:48:44.773Z,71.60
2023-04-20T19:51:12.008Z,71.60
2023-04-20T19:53:39.210Z,71.50
2023-04-20T19:56:06.788Z,71.40
2023-04-20T19:58:34.204Z,71.30
2023-04-20T20:01:04.656Z,71.40
2023-04-20T20:03:32.154Z,71.60
2023-04-20T20:05:59.593Z,71.70
2023-04-20T20:08:27.187Z,71.80
2023-04-20T20:10:54.470Z,72.00
2023-04-20T20:13:21.686Z,72.10
2023-04-20T20:15:48.980Z,72.20
2023-04-20T20:18:16.408Z,72.30
2023-04-20T20:20:43.610Z,72.30
2023-04-20T20:23:10.897Z,72.50
2023-04-20T20:25:38.260Z,72.50
2023-04-20T20:28:05.750Z,72.50
2023-04-20T20:30:33.096Z,72.60
2023-04-20T20:33:00.808Z,72.40
2023-04-20T20:35:31.795Z,72.50
2023-04-20T20:37:59.875Z,72.70
2023-04-20T20:40:27.143Z,72.90
2023-04-20T20:42:54.415Z,73.00
2023-04-20T20:45:22.002Z,73.20
2023-04-20T20:47:49.345Z,73.40
2023-04-20T20:50:17.125Z,73.60
2023-04-20T20:52:44.416Z,73.80
2023-04-20T20:55:12.379Z,73.80
2023-04-20T20:57:39.814Z,73.70
2023-04-20T21:00:10.442Z,73.80
2023-04-20T21:02:38.665Z,73.80
2023-04-20T21:05:06.698Z,73.80
2023-04-20T21:07:34.029Z,73.70
2023-04-20T21:10:01.589Z,73.80
2023-04-20T21:12:28.782Z,73.80
2023-04-20T21:14:56.102Z,73.80
2023-04-20T21:17:23.373Z,73.80
2023-04-20T21:19:51.621Z,73.80
2023-04-20T21:22:20.189Z,73.80
2023-04-20T21:24:47.383Z,74.00
2023-04-20T21:27:14.604Z,74.20
2023-04-20T21:29:41.786Z,74.40
2023-04-20T21:32:09.980Z,74.50
2023-04-20T21:34:37.257Z,74.90
2023-04-20T21:37:05.704Z,74.70
2023-04-20T21:39:32.891Z,74.80
2023-04-20T21:42:01.526Z,74.90
2023-04-20T21:44:29.203Z,74.80
2023-04-20T21:46:56.561Z,74.80
2023-04-20T21:49:23.770Z,74.80
2023-04-20T21:51:50.970Z,74.80
2023-04-20T21:54:18.141Z,74.80
2023-04-20T21:56:46.633Z,75.00
2023-04-20T21:59:14.475Z,75.30
2023-04-20T22:01:41.678Z,75.40
2023-04-20T22:04:10.410Z,75.20
2023-04-20T22:06:38.038Z,75.60
2023-04-20T22:09:05.337Z,75.70
2023-04-20T22:11:36.434Z,75.80
2023-04-20T22:14:04.604Z,76.20
2023-04-20T22:16:34.034Z,76.50
2023-04-20T22:19:01.493Z,76.60
2023-04-20T22:21:28.786Z,76.80
2023-04-20T22:23:56.053Z,77.20
2023-04-20T22:26:23.751Z,77.10
2023-04-20T22:28:50.970Z,77.20
2023-04-20T22:31:18.205Z,77.20
2023-04-20T22:33:45.532Z,77.20
2023-04-20T22:36:13.026Z,77.20
2023-04-20T22:38:40.586Z,77.30
2023-04-20T22:41:07.998Z,77.50
2023-04-20T22:43:35.311Z,77.50
2023-04-20T22:46:02.582Z,77.60
2023-04-20T22:48:29.850Z,77.60
2023-04-20T22:51:00.813Z,77.60
2023-04-20T22:53:30.200Z,77.80
2023-04-20T22:56:05.929Z,77.90
2023-04-20T22:58:33.708Z,77.90
2023-04-20T23:01:01.065Z,77.90
2023-04-20T23:03:28.713Z,78.10
2023-04-20T23:05:57.512Z,78.10
2023-04-20T23:08:26.162Z,78.30
2023-04-20T23:10:56.309Z,78.30
2023-04-20T23:13:26.183Z,78.40
2023-04-20T23:15:53.718Z,78.10
2023-04-20T23:18:20.947Z,78.20
2023-04-20T23:20:48.198Z,78.30
2023-04-20T23:23:15.534Z,78.40
2023-04-20T23:25:42.765Z,78.50
2023-04-20T23:28:10.011Z,78.60
2023-04-20T23:30:37.231Z,78.60
2023-04-20T23:33:04.561Z,78.50
2023-04-20T23:35:31.868Z,79.50
2023-04-20T23:37:59.173Z,78.90
2023-04-20T23:40:26.479Z,78.90
2023-04-20T23:42:55.196Z,78.80
2023-04-20T23:45:23.531Z,78.90
2023-04-20T23:47:50.895Z,79.20
2023-04-20T23:50:18.230Z,79.10
2023-04-20T23:52:45.492Z,79.10
2023-04-20T23:55:12.745Z,79.30
2023-04-20T23:57:39.979Z,79.60
